Daventry, United Kingdom
Current Conditions -  °F | °C
As of 6:50 PM on Wednesday 26 Nov 2014 (Local Time) from EGBE Reporting Station
Moderate Fog Moderate Fog  
Wind Chill: 44°   Ceiling: Unl
Heat Index: 46°   Visibility: 0.15mi
Dew Point: 46°   Wind: 6mph
Humidity: 100%   Direction: 360°N
Pressure: 29.8"   Gusts: NA
Location:  52.26°N, 1.16°W
Report Text: EGBE 261850Z 36005KT 0250 FG VV/// 08/08 Q1009
Loading
Personal Weather Stations






























Interactive Weather Map New forecast layout! Learn more

10-Day Weather Forecast

Advertisements
Track Severe Weather on mobile